createdAt,value
2018-12-23T00:04:32.302Z,4.37
2018-12-23T00:09:37.757Z,6.67
2018-12-23T00:14:43.201Z,1.30
2018-12-23T00:19:48.943Z,14.20
2018-12-23T00:24:54.745Z,4.73
2018-12-23T00:30:00.323Z,2.53
2018-12-23T00:35:06.217Z,2.70
2018-12-23T00:40:11.997Z,13.53
2018-12-23T00:45:17.394Z,1.60
2018-12-23T00:50:23.088Z,2.20
2018-12-23T00:55:28.547Z,6.73
2018-12-23T01:00:34.112Z,5.07
2018-12-23T01:05:39.594Z,3.60
2018-12-23T01:10:45.223Z,4.30
2018-12-23T01:15:50.718Z,5.27
2018-12-23T01:20:55.996Z,10.07
2018-12-23T01:26:02.006Z,6.33
2018-12-23T01:31:08.182Z,7.37
2018-12-23T01:36:14.168Z,9.80
2018-12-23T01:41:19.989Z,8.23
2018-12-23T01:46:25.276Z,7.80
2018-12-23T01:51:30.702Z,6.47
2018-12-23T01:56:37.157Z,2.03
2018-12-23T02:01:42.793Z,9.53
2018-12-23T02:06:48.314Z,6.33
2018-12-23T02:11:53.805Z,14.73
2018-12-23T02:16:59.059Z,7.37
2018-12-23T02:22:04.922Z,6.70
2018-12-23T02:27:10.423Z,4.70
2018-12-23T02:32:16.222Z,4.90
2018-12-23T02:37:21.587Z,4.30
2018-12-23T02:42:26.883Z,8.73
2018-12-23T02:47:32.259Z,3.60
2018-12-23T02:52:38.005Z,2.20
2018-12-23T02:57:43.443Z,8.77
2018-12-23T03:02:48.851Z,6.60
2018-12-23T03:07:54.339Z,7.50
2018-12-23T03:12:59.747Z,3.30
2018-12-23T03:18:05.467Z,5.17
2018-12-23T03:23:10.698Z,3.43
2018-12-23T03:28:16.051Z,7.90
2018-12-23T03:33:21.349Z,3.27
2018-12-23T03:38:26.798Z,3.53
2018-12-23T03:43:32.179Z,4.87
2018-12-23T03:48:37.441Z,7.40
2018-12-23T03:53:42.884Z,3.87
2018-12-23T03:58:48.242Z,3.43
2018-12-23T04:03:53.516Z,4.90
2018-12-23T04:08:59.149Z,4.40
2018-12-23T04:14:04.810Z,4.20
2018-12-23T04:19:10.261Z,6.93
2018-12-23T04:24:15.575Z,7.93
2018-12-23T04:29:20.971Z,3.27
2018-12-23T04:34:26.350Z,9.50
2018-12-23T04:39:31.644Z,2.60
2018-12-23T04:44:37.680Z,7.67
2018-12-23T04:49:43.151Z,6.00
2018-12-23T04:54:48.541Z,4.10
2018-12-23T04:59:53.896Z,1.90
2018-12-23T05:04:59.292Z,2.80
2018-12-23T05:10:04.769Z,5.57
2018-12-23T05:15:10.061Z,8.03
2018-12-23T05:20:15.503Z,6.73
2018-12-23T05:25:20.984Z,4.43
2018-12-23T05:30:26.508Z,13.83
2018-12-23T05:35:32.558Z,5.20
2018-12-23T05:40:37.980Z,5.57
2018-12-23T05:45:43.446Z,5.83
2018-12-23T05:50:49.064Z,7.07
2018-12-23T05:55:53.180Z,3.33
2018-12-23T06:00:59.003Z,3.70
2018-12-23T06:06:04.393Z,3.80
2018-12-23T06:11:09.718Z,4.37
2018-12-23T06:16:14.985Z,5.97
2018-12-23T06:21:20.436Z,11.27
2018-12-23T06:26:25.762Z,5.93
2018-12-23T06:31:31.138Z,8.30
2018-12-23T06:36:36.648Z,5.97
2018-12-23T06:41:41.984Z,6.10
2018-12-23T06:46:47.461Z,3.03
2018-12-23T06:51:53.073Z,7.70
2018-12-23T06:56:58.392Z,5.50
2018-12-23T07:02:03.947Z,4.33
2018-12-23T07:07:09.630Z,5.37
2018-12-23T07:12:14.849Z,4.93
2018-12-23T07:17:20.369Z,2.90
2018-12-23T07:22:25.825Z,1.37
2018-12-23T07:27:31.407Z,2.70
2018-12-23T07:32:36.720Z,1.67
2018-12-23T07:37:42.564Z,2.83
2018-12-23T07:42:48.074Z,2.67
2018-12-23T07:47:53.747Z,1.30
2018-12-23T07:52:59.194Z,1.80
2018-12-23T07:58:04.774Z,1.40
2018-12-23T08:03:10.199Z,2.63
2018-12-23T08:08:15.623Z,5.20
2018-12-23T08:13:21.647Z,3.00
2018-12-23T08:18:28.263Z,4.20
2018-12-23T08:23:33.620Z,4.27
2018-12-23T08:28:39.680Z,3.57
2018-12-23T08:33:46.626Z,3.83
2018-12-23T08:38:52.475Z,4.83
2018-12-23T08:43:59.171Z,3.43
2018-12-23T08:49:04.874Z,5.57
2018-12-23T08:54:11.539Z,1.70
2018-12-23T08:59:17.158Z,7.37
2018-12-23T09:04:24.169Z,9.17
2018-12-23T09:09:32.688Z,3.33
2018-12-23T09:14:38.768Z,3.57
2018-12-23T09:19:44.994Z,3.60
2018-12-23T09:24:53.087Z,2.87
2018-12-23T09:29:58.998Z,6.03
2018-12-23T09:35:05.274Z,2.67
2018-12-23T09:40:11.974Z,3.03
2018-12-23T09:45:18.606Z,6.13
2018-12-23T09:50:29.940Z,2.90
2018-12-23T09:55:36.462Z,4.27
2018-12-23T10:00:43.003Z,7.17
2018-12-23T10:05:50.364Z,10.50
2018-12-23T10:10:57.909Z,11.93
2018-12-23T10:16:03.890Z,5.70
2018-12-23T10:21:10.355Z,4.43
2018-12-23T10:26:15.842Z,5.13
2018-12-23T10:31:21.939Z,7.57
2018-12-23T10:36:27.661Z,6.00
2018-12-23T10:41:33.693Z,8.17
2018-12-23T10:46:40.804Z,2.97
2018-12-23T10:51:48.013Z,1.90
2018-12-23T10:56:53.724Z,7.90
2018-12-23T11:02:03.781Z,4.57
2018-12-23T11:07:09.558Z,4.73
2018-12-23T11:12:15.811Z,1.73
2018-12-23T11:17:24.532Z,1.83
2018-12-23T11:22:30.077Z,4.43
2018-12-23T11:27:35.501Z,2.83
2018-12-23T11:32:40.813Z,3.73
2018-12-23T11:37:46.739Z,4.93
2018-12-23T11:42:52.262Z,6.67
2018-12-23T11:47:58.125Z,3.20
2018-12-23T11:53:03.788Z,7.50
2018-12-23T11:58:10.440Z,4.03
2018-12-23T12:03:47.539Z,4.60
2018-12-23T12:08:53.525Z,7.13
2018-12-23T12:13:59.266Z,5.53
2018-12-23T12:19:05.239Z,5.67
2018-12-23T12:24:11.161Z,7.50
2018-12-23T12:29:16.806Z,5.17
2018-12-23T12:34:22.246Z,5.23
2018-12-23T12:39:27.981Z,3.83
2018-12-23T12:44:33.435Z,4.70
2018-12-23T12:49:39.111Z,3.87
2018-12-23T12:54:44.532Z,3.07
2018-12-23T12:59:50.834Z,2.37
2018-12-23T13:04:58.497Z,1.80
2018-12-23T13:10:04.649Z,3.47
2018-12-23T13:15:10.188Z,0.87
2018-12-23T13:20:16.523Z,2.30
2018-12-23T13:25:22.070Z,0.93
2018-12-23T13:30:27.657Z,1.07
2018-12-23T13:35:33.719Z,1.10
2018-12-23T13:40:55.293Z,3.23
2018-12-23T13:48:10.945Z,2.93
2018-12-23T13:53:32.345Z,3.03
2018-12-23T13:58:50.530Z,1.93
2018-12-23T14:04:08.959Z,4.03
2018-12-23T14:09:25.464Z,5.27
2018-12-23T14:14:30.957Z,2.97
2018-12-23T14:19:36.880Z,3.90
2018-12-23T14:24:42.290Z,3.53
2018-12-23T14:29:47.666Z,4.87
2018-12-23T14:34:53.351Z,7.10
2018-12-23T14:39:59.053Z,2.97
2018-12-23T14:45:05.516Z,7.20
2018-12-23T14:50:11.142Z,10.13
2018-12-23T14:55:16.755Z,9.43
2018-12-23T15:00:22.092Z,2.13
2018-12-23T15:05:27.632Z,4.77
2018-12-23T15:10:34.021Z,11.93
2018-12-23T15:15:40.512Z,7.10
2018-12-23T15:20:46.202Z,3.27
2018-12-23T15:25:51.635Z,2.57
2018-12-23T15:31:56.298Z,2.67
2018-12-23T15:37:14.153Z,5.40
2018-12-23T15:42:35.158Z,1.83
2018-12-23T15:47:53.642Z,3.17
2018-12-23T15:53:11.782Z,3.23
2018-12-23T15:58:30.333Z,2.83
2018-12-23T16:03:48.323Z,4.50
2018-12-23T16:09:05.924Z,8.23
2018-12-23T16:14:24.795Z,1.90
2018-12-23T16:19:43.007Z,4.77
2018-12-23T16:25:00.883Z,2.70
2018-12-23T16:30:22.678Z,2.47
2018-12-23T16:35:40.257Z,3.63
2018-12-23T16:40:58.518Z,2.20
2018-12-23T16:46:16.212Z,2.10
2018-12-23T16:51:35.040Z,3.60
2018-12-23T16:56:52.715Z,2.87
2018-12-23T17:02:10.620Z,8.23
2018-12-23T17:07:28.233Z,17.10
2018-12-23T17:12:48.398Z,2.97
2018-12-23T17:18:06.805Z,2.20
2018-12-23T17:23:25.021Z,7.60
2018-12-23T17:28:42.689Z,11.00
2018-12-23T17:34:00.861Z,7.20
2018-12-23T17:39:18.891Z,7.40
2018-12-23T17:44:36.657Z,6.90
2018-12-23T17:49:55.945Z,8.90
2018-12-23T17:55:14.873Z,3.87
2018-12-23T18:00:33.071Z,4.70
2018-12-23T18:05:51.397Z,5.17
2018-12-23T18:11:09.550Z,4.87
2018-12-23T18:16:32.325Z,3.40
2018-12-23T18:21:50.292Z,3.97
2018-12-23T18:27:08.648Z,5.83
2018-12-23T18:32:27.748Z,3.37
2018-12-23T18:37:45.723Z,19.70
2018-12-23T18:43:03.535Z,14.63
2018-12-23T18:48:22.174Z,10.10
2018-12-23T18:53:40.201Z,8.77
2018-12-23T18:58:57.993Z,9.20
2018-12-23T19:04:16.551Z,17.53
2018-12-23T19:09:34.401Z,21.60
2018-12-23T19:14:52.547Z,31.03
2018-12-23T19:20:11.043Z,29.97
2018-12-23T19:25:28.681Z,37.73
2018-12-23T19:30:46.739Z,44.63
2018-12-23T19:36:05.310Z,23.83
2018-12-23T19:41:23.127Z,16.23
2018-12-23T19:46:40.659Z,26.00
2018-12-23T19:51:58.534Z,12.07
2018-12-23T19:57:17.011Z,15.23
2018-12-23T20:02:34.969Z,13.60
2018-12-23T20:07:53.186Z,10.57
2018-12-23T20:13:11.314Z,7.37
2018-12-23T20:18:29.722Z,5.30
2018-12-23T20:23:48.331Z,4.33
2018-12-23T20:29:08.472Z,5.83
2018-12-23T20:34:28.085Z,5.13
2018-12-23T20:39:46.732Z,5.43
2018-12-23T20:45:04.681Z,8.40
2018-12-23T20:50:23.222Z,11.40
2018-12-23T20:55:41.111Z,17.00
2018-12-23T21:00:59.202Z,6.13
2018-12-23T21:06:17.648Z,8.57
2018-12-23T21:11:38.631Z,6.10
2018-12-23T21:16:56.737Z,6.43
2018-12-23T21:22:14.426Z,13.57
2018-12-23T21:27:32.269Z,8.20
2018-12-23T21:32:52.248Z,7.53
2018-12-23T21:38:12.266Z,8.27
2018-12-23T21:43:30.121Z,6.67
2018-12-23T21:48:47.996Z,4.00
2018-12-23T21:54:06.191Z,4.17
2018-12-23T21:59:23.735Z,1.77
2018-12-23T22:04:41.919Z,1.70
2018-12-23T22:10:01.117Z,1.93
2018-12-23T22:15:19.334Z,1.30
2018-12-23T22:20:37.008Z,2.03
2018-12-23T22:25:58.488Z,2.37
2018-12-23T22:31:16.033Z,4.63
2018-12-23T22:36:34.725Z,4.63
2018-12-23T22:41:52.840Z,2.67
2018-12-23T22:47:10.612Z,0.53
2018-12-23T22:52:28.734Z,0.60
2018-12-23T22:57:46.833Z,0.40
2018-12-23T23:03:09.062Z,0.40
2018-12-23T23:08:24.345Z,0.90
2018-12-23T23:13:42.533Z,4.13
2018-12-23T23:19:00.698Z,2.00
2018-12-23T23:24:18.192Z,4.57
2018-12-23T23:29:36.442Z,0.80
2018-12-23T23:34:54.535Z,0.87
2018-12-23T23:40:12.684Z,0.60
2018-12-23T23:45:30.504Z,0.60
2018-12-23T23:50:49.043Z,0.60
2018-12-23T23:56:06.499Z,0.53
